sensor_id;sensor_type;location;lat;lon;timestamp;temperature;humidity
37456;DHT22;23316;50.718;7.328;2022-08-07T00:00:51;18.30;39.20
37456;DHT22;23316;50.718;7.328;2022-08-07T00:03:20;18.30;39.20
37456;DHT22;23316;50.718;7.328;2022-08-07T00:05:49;18.20;39.40
37456;DHT22;23316;50.718;7.328;2022-08-07T00:08:17;18.20;39.60
37456;DHT22;23316;50.718;7.328;2022-08-07T00:10:45;18.20;39.70
37456;DHT22;23316;50.718;7.328;2022-08-07T00:13:12;18.10;39.70
37456;DHT22;23316;50.718;7.328;2022-08-07T00:15:39;18.10;39.60
37456;DHT22;23316;50.718;7.328;2022-08-07T00:18:06;18.10;39.60
37456;DHT22;23316;50.718;7.328;2022-08-07T00:20:36;18.10;39.70
37456;DHT22;23316;50.718;7.328;2022-08-07T00:23:04;18.10;40.00
37456;DHT22;23316;50.718;7.328;2022-08-07T00:25:32;18.00;40.10
37456;DHT22;23316;50.718;7.328;2022-08-07T00:27:59;18.00;40.30
37456;DHT22;23316;50.718;7.328;2022-08-07T00:30:27;18.00;40.40
37456;DHT22;23316;50.718;7.328;2022-08-07T00:32:55;17.90;40.30
37456;DHT22;23316;50.718;7.328;2022-08-07T00:35:23;17.90;40.30
37456;DHT22;23316;50.718;7.328;2022-08-07T00:37:51;17.90;40.20
37456;DHT22;23316;50.718;7.328;2022-08-07T00:40:19;17.90;40.20
37456;DHT22;23316;50.718;7.328;2022-08-07T00:42:46;17.80;40.50
37456;DHT22;23316;50.718;7.328;2022-08-07T00:45:13;17.80;40.60
37456;DHT22;23316;50.718;7.328;2022-08-07T00:47:40;17.80;40.60
37456;DHT22;23316;50.718;7.328;2022-08-07T00:50:08;17.70;40.60
37456;DHT22;23316;50.718;7.328;2022-08-07T00:52:35;17.70;40.70
37456;DHT22;23316;50.718;7.328;2022-08-07T00:55:04;17.70;40.90
37456;DHT22;23316;50.718;7.328;2022-08-07T00:57:32;17.60;41.10
37456;DHT22;23316;50.718;7.328;2022-08-07T00:59:59;17.60;41.10
37456;DHT22;23316;50.718;7.328;2022-08-07T01:02:26;17.60;41.10
37456;DHT22;23316;50.718;7.328;2022-08-07T01:04:54;17.50;41.30
37456;DHT22;23316;50.718;7.328;2022-08-07T01:07:21;17.50;41.50
37456;DHT22;23316;50.718;7.328;2022-08-07T01:09:48;17.50;41.50
37456;DHT22;23316;50.718;7.328;2022-08-07T01:12:17;17.50;41.60
37456;DHT22;23316;50.718;7.328;2022-08-07T01:14:45;17.40;41.50
37456;DHT22;23316;50.718;7.328;2022-08-07T01:20:43;17.30;41.60
37456;DHT22;23316;50.718;7.328;2022-08-07T01:23:13;17.30;41.60
37456;DHT22;23316;50.718;7.328;2022-08-07T01:25:41;17.30;41.60
37456;DHT22;23316;50.718;7.328;2022-08-07T01:28:09;17.20;41.80
37456;DHT22;23316;50.718;7.328;2022-08-07T01:30:36;17.20;42.00
37456;DHT22;23316;50.718;7.328;2022-08-07T01:33:05;17.20;41.90
37456;DHT22;23316;50.718;7.328;2022-08-07T01:35:32;17.20;41.80
37456;DHT22;23316;50.718;7.328;2022-08-07T01:37:59;17.20;42.00
37456;DHT22;23316;50.718;7.328;2022-08-07T01:40:29;17.10;42.20
37456;DHT22;23316;50.718;7.328;2022-08-07T01:42:56;17.10;42.20
37456;DHT22;23316;50.718;7.328;2022-08-07T01:45:23;17.10;42.30
37456;DHT22;23316;50.718;7.328;2022-08-07T01:47:51;17.10;42.30
37456;DHT22;23316;50.718;7.328;2022-08-07T01:50:19;17.10;42.30
37456;DHT22;23316;50.718;7.328;2022-08-07T01:52:49;17.00;42.40
37456;DHT22;23316;50.718;7.328;2022-08-07T01:55:17;17.00;42.40
37456;DHT22;23316;50.718;7.328;2022-08-07T01:57:52;17.00;42.50
37456;DHT22;23316;50.718;7.328;2022-08-07T02:00:21;17.00;42.60
37456;DHT22;23316;50.718;7.328;2022-08-07T02:02:54;17.00;42.70
37456;DHT22;23316;50.718;7.328;2022-08-07T02:05:25;16.90;42.60
37456;DHT22;23316;50.718;7.328;2022-08-07T02:07:57;16.90;42.50
37456;DHT22;23316;50.718;7.328;2022-08-07T02:10:27;16.90;42.60
37456;DHT22;23316;50.718;7.328;2022-08-07T02:12:59;16.90;42.60
37456;DHT22;23316;50.718;7.328;2022-08-07T02:15:29;16.80;42.60
37456;DHT22;23316;50.718;7.328;2022-08-07T02:18:00;16.80;42.60
37456;DHT22;23316;50.718;7.328;2022-08-07T02:20:33;16.80;42.60
37456;DHT22;23316;50.718;7.328;2022-08-07T02:23:02;16.80;42.80
37456;DHT22;23316;50.718;7.328;2022-08-07T02:25:33;16.70;42.80
37456;DHT22;23316;50.718;7.328;2022-08-07T02:28:04;16.70;42.80
37456;DHT22;23316;50.718;7.328;2022-08-07T02:33:56;16.70;43.40
37456;DHT22;23316;50.718;7.328;2022-08-07T02:36:25;16.70;43.20
37456;DHT22;23316;50.718;7.328;2022-08-07T02:38:54;16.70;43.40
37456;DHT22;23316;50.718;7.328;2022-08-07T02:41:23;16.70;43.50
37456;DHT22;23316;50.718;7.328;2022-08-07T02:43:52;16.60;43.40
37456;DHT22;23316;50.718;7.328;2022-08-07T02:46:22;16.60;43.50
37456;DHT22;23316;50.718;7.328;2022-08-07T02:48:50;16.60;43.60
37456;DHT22;23316;50.718;7.328;2022-08-07T02:51:20;16.60;43.60
37456;DHT22;23316;50.718;7.328;2022-08-07T02:53:50;16.50;43.60
37456;DHT22;23316;50.718;7.328;2022-08-07T02:56:21;16.50;43.60
37456;DHT22;23316;50.718;7.328;2022-08-07T02:58:50;16.50;43.70
37456;DHT22;23316;50.718;7.328;2022-08-07T03:01:20;16.50;43.70
37456;DHT22;23316;50.718;7.328;2022-08-07T03:03:51;16.40;43.70
37456;DHT22;23316;50.718;7.328;2022-08-07T03:06:22;16.40;43.70
37456;DHT22;23316;50.718;7.328;2022-08-07T03:08:50;16.30;43.80
37456;DHT22;23316;50.718;7.328;2022-08-07T03:11:17;16.30;44.00
37456;DHT22;23316;50.718;7.328;2022-08-07T03:13:45;16.30;44.00
37456;DHT22;23316;50.718;7.328;2022-08-07T03:16:13;16.20;44.10
37456;DHT22;23316;50.718;7.328;2022-08-07T03:18:42;16.20;44.10
37456;DHT22;23316;50.718;7.328;2022-08-07T03:21:09;16.20;44.20
37456;DHT22;23316;50.718;7.328;2022-08-07T03:23:38;16.20;44.30
37456;DHT22;23316;50.718;7.328;2022-08-07T03:26:08;16.20;44.30
37456;DHT22;23316;50.718;7.328;2022-08-07T03:28:36;16.10;44.30
37456;DHT22;23316;50.718;7.328;2022-08-07T03:31:06;16.10;44.20
37456;DHT22;23316;50.718;7.328;2022-08-07T03:33:49;16.10;44.20
37456;DHT22;23316;50.718;7.328;2022-08-07T03:36:18;16.00;44.20
37456;DHT22;23316;50.718;7.328;2022-08-07T03:38:47;16.00;44.20
37456;DHT22;23316;50.718;7.328;2022-08-07T03:41:15;16.00;44.30
37456;DHT22;23316;50.718;7.328;2022-08-07T03:43:43;15.90;44.30
37456;DHT22;23316;50.718;7.328;2022-08-07T03:46:11;15.90;44.40
37456;DHT22;23316;50.718;7.328;2022-08-07T03:48:39;15.90;44.60
37456;DHT22;23316;50.718;7.328;2022-08-07T03:51:08;15.90;44.70
37456;DHT22;23316;50.718;7.328;2022-08-07T03:53:37;15.90;44.90
37456;DHT22;23316;50.718;7.328;2022-08-07T03:56:06;15.80;44.90
37456;DHT22;23316;50.718;7.328;2022-08-07T03:58:36;15.80;45.00
37456;DHT22;23316;50.718;7.328;2022-08-07T04:01:15;15.80;45.10
37456;DHT22;23316;50.718;7.328;2022-08-07T04:03:44;15.80;45.10
37456;DHT22;23316;50.718;7.328;2022-08-07T04:06:12;15.80;45.20
37456;DHT22;23316;50.718;7.328;2022-08-07T04:08:40;15.70;45.20
37456;DHT22;23316;50.718;7.328;2022-08-07T04:11:09;15.70;45.20
37456;DHT22;23316;50.718;7.328;2022-08-07T04:13:39;15.70;45.20
37456;DHT22;23316;50.718;7.328;2022-08-07T04:16:09;15.70;45.20
37456;DHT22;23316;50.718;7.328;2022-08-07T04:18:37;15.70;45.30
37456;DHT22;23316;50.718;7.328;2022-08-07T04:21:04;15.70;45.30
37456;DHT22;23316;50.718;7.328;2022-08-07T04:23:33;15.70;45.50
37456;DHT22;23316;50.718;7.328;2022-08-07T04:26:01;15.70;45.50
37456;DHT22;23316;50.718;7.328;2022-08-07T04:28:28;15.70;46.10
37456;DHT22;23316;50.718;7.328;2022-08-07T04:30:59;15.70;45.50
37456;DHT22;23316;50.718;7.328;2022-08-07T04:33:27;15.70;45.40
37456;DHT22;23316;50.718;7.328;2022-08-07T04:35:55;15.70;45.40
37456;DHT22;23316;50.718;7.328;2022-08-07T04:38:24;15.70;45.50
37456;DHT22;23316;50.718;7.328;2022-08-07T04:40:53;15.70;45.60
37456;DHT22;23316;50.718;7.328;2022-08-07T04:43:24;15.70;45.70
37456;DHT22;23316;50.718;7.328;2022-08-07T04:45:56;15.70;45.70
37456;DHT22;23316;50.718;7.328;2022-08-07T04:48:34;15.70;45.80
37456;DHT22;23316;50.718;7.328;2022-08-07T04:51:06;15.70;45.90
37456;DHT22;23316;50.718;7.328;2022-08-07T04:53:38;15.70;46.00
37456;DHT22;23316;50.718;7.328;2022-08-07T04:56:17;15.70;46.10
37456;DHT22;23316;50.718;7.328;2022-08-07T04:58:50;15.70;46.30
37456;DHT22;23316;50.718;7.328;2022-08-07T05:01:23;15.80;46.20
37456;DHT22;23316;50.718;7.328;2022-08-07T05:04:01;15.70;46.10
37456;DHT22;23316;50.718;7.328;2022-08-07T05:06:34;15.80;46.30
37456;DHT22;23316;50.718;7.328;2022-08-07T05:09:04;15.80;46.50
37456;DHT22;23316;50.718;7.328;2022-08-07T05:11:40;15.80;46.50
37456;DHT22;23316;50.718;7.328;2022-08-07T05:14:12;15.80;46.50
37456;DHT22;23316;50.718;7.328;2022-08-07T05:16:41;15.80;46.10
37456;DHT22;23316;50.718;7.328;2022-08-07T05:19:14;15.80;46.20
37456;DHT22;23316;50.718;7.328;2022-08-07T05:21:47;15.80;46.30
37456;DHT22;23316;50.718;7.328;2022-08-07T05:24:17;15.70;46.30
37456;DHT22;23316;50.718;7.328;2022-08-07T05:26:49;15.70;46.40
37456;DHT22;23316;50.718;7.328;2022-08-07T05:29:19;15.70;46.70
37456;DHT22;23316;50.718;7.328;2022-08-07T05:31:48;15.70;47.10
37456;DHT22;23316;50.718;7.328;2022-08-07T05:34:17;15.80;47.20
37456;DHT22;23316;50.718;7.328;2022-08-07T05:36:47;15.80;47.20
37456;DHT22;23316;50.718;7.328;2022-08-07T05:39:16;15.80;47.00
37456;DHT22;23316;50.718;7.328;2022-08-07T05:41:45;15.90;47.50
37456;DHT22;23316;50.718;7.328;2022-08-07T05:44:18;16.00;48.10
37456;DHT22;23316;50.718;7.328;2022-08-07T05:46:47;16.00;48.40
37456;DHT22;23316;50.718;7.328;2022-08-07T05:49:16;16.20;48.70
37456;DHT22;23316;50.718;7.328;2022-08-07T05:51:44;16.30;49.00
37456;DHT22;23316;50.718;7.328;2022-08-07T05:54:12;16.40;49.00
37456;DHT22;23316;50.718;7.328;2022-08-07T05:56:40;16.50;49.00
37456;DHT22;23316;50.718;7.328;2022-08-07T05:59:12;16.60;49.00
37456;DHT22;23316;50.718;7.328;2022-08-07T06:01:44;16.70;49.20
37456;DHT22;23316;50.718;7.328;2022-08-07T06:04:14;16.80;49.30
37456;DHT22;23316;50.718;7.328;2022-08-07T06:06:42;16.90;49.20
37456;DHT22;23316;50.718;7.328;2022-08-07T06:09:10;17.00;49.20
37456;DHT22;23316;50.718;7.328;2022-08-07T06:11:38;17.10;49.10
37456;DHT22;23316;50.718;7.328;2022-08-07T06:14:05;17.20;49.30
37456;DHT22;23316;50.718;7.328;2022-08-07T06:16:33;17.20;49.10
37456;DHT22;23316;50.718;7.328;2022-08-07T06:19:03;17.30;49.00
37456;DHT22;23316;50.718;7.328;2022-08-07T06:21:31;17.40;49.00
37456;DHT22;23316;50.718;7.328;2022-08-07T06:23:58;17.40;49.00
37456;DHT22;23316;50.718;7.328;2022-08-07T06:26:26;17.50;48.90
37456;DHT22;23316;50.718;7.328;2022-08-07T06:28:54;17.50;48.70
37456;DHT22;23316;50.718;7.328;2022-08-07T06:31:22;17.60;48.60
37456;DHT22;23316;50.718;7.328;2022-08-07T06:33:50;17.60;47.40
37456;DHT22;23316;50.718;7.328;2022-08-07T06:36:18;17.70;46.70
37456;DHT22;23316;50.718;7.328;2022-08-07T06:38:46;17.70;46.10
37456;DHT22;23316;50.718;7.328;2022-08-07T06:41:17;17.70;45.90
37456;DHT22;23316;50.718;7.328;2022-08-07T06:43:47;17.70;45.60
37456;DHT22;23316;50.718;7.328;2022-08-07T06:46:15;17.70;45.20
37456;DHT22;23316;50.718;7.328;2022-08-07T06:48:42;17.70;44.90
37456;DHT22;23316;50.718;7.328;2022-08-07T06:51:13;17.70;44.70
37456;DHT22;23316;50.718;7.328;2022-08-07T06:53:42;17.70;44.50
37456;DHT22;23316;50.718;7.328;2022-08-07T06:56:11;17.70;44.80
37456;DHT22;23316;50.718;7.328;2022-08-07T06:58:39;17.70;45.10
37456;DHT22;23316;50.718;7.328;2022-08-07T07:01:09;17.80;45.10
37456;DHT22;23316;50.718;7.328;2022-08-07T07:03:39;17.80;45.30
37456;DHT22;23316;50.718;7.328;2022-08-07T07:06:07;17.80;45.20
37456;DHT22;23316;50.718;7.328;2022-08-07T07:08:35;17.80;45.10
37456;DHT22;23316;50.718;7.328;2022-08-07T07:11:04;17.80;45.20
37456;DHT22;23316;50.718;7.328;2022-08-07T07:13:36;17.80;45.20
37456;DHT22;23316;50.718;7.328;2022-08-07T07:16:10;17.80;45.40
37456;DHT22;23316;50.718;7.328;2022-08-07T07:18:43;17.90;45.30
37456;DHT22;23316;50.718;7.328;2022-08-07T07:21:16;17.90;44.90
37456;DHT22;23316;50.718;7.328;2022-08-07T07:23:45;18.00;45.40
37456;DHT22;23316;50.718;7.328;2022-08-07T07:26:17;18.00;45.30
37456;DHT22;23316;50.718;7.328;2022-08-07T07:28:50;18.00;45.30
37456;DHT22;23316;50.718;7.328;2022-08-07T07:31:22;18.10;45.30
37456;DHT22;23316;50.718;7.328;2022-08-07T07:33:53;18.10;45.20
37456;DHT22;23316;50.718;7.328;2022-08-07T07:36:21;18.20;45.20
37456;DHT22;23316;50.718;7.328;2022-08-07T07:38:50;18.20;45.20
37456;DHT22;23316;50.718;7.328;2022-08-07T07:41:20;18.40;45.00
37456;DHT22;23316;50.718;7.328;2022-08-07T07:43:51;18.40;45.20
37456;DHT22;23316;50.718;7.328;2022-08-07T07:46:19;18.50;45.20
37456;DHT22;23316;50.718;7.328;2022-08-07T07:48:49;18.50;44.80
37456;DHT22;23316;50.718;7.328;2022-08-07T07:51:18;18.60;45.30
37456;DHT22;23316;50.718;7.328;2022-08-07T07:53:46;18.70;45.30
37456;DHT22;23316;50.718;7.328;2022-08-07T07:56:15;18.70;44.40
37456;DHT22;23316;50.718;7.328;2022-08-07T07:58:44;18.80;44.20
37456;DHT22;23316;50.718;7.328;2022-08-07T08:01:13;18.80;44.30
37456;DHT22;23316;50.718;7.328;2022-08-07T08:03:42;18.90;44.00
37456;DHT22;23316;50.718;7.328;2022-08-07T08:06:11;19.00;43.70
37456;DHT22;23316;50.718;7.328;2022-08-07T08:08:39;19.10;43.80
37456;DHT22;23316;50.718;7.328;2022-08-07T08:11:08;19.10;43.20
37456;DHT22;23316;50.718;7.328;2022-08-07T08:13:43;19.20;43.30
37456;DHT22;23316;50.718;7.328;2022-08-07T08:16:13;19.30;43.20
37456;DHT22;23316;50.718;7.328;2022-08-07T08:18:42;19.40;43.30
37456;DHT22;23316;50.718;7.328;2022-08-07T08:21:13;19.50;43.00
37456;DHT22;23316;50.718;7.328;2022-08-07T08:23:55;19.60;42.70
37456;DHT22;23316;50.718;7.328;2022-08-07T08:26:41;19.60;42.20
37456;DHT22;23316;50.718;7.328;2022-08-07T08:29:26;19.70;42.40
37456;DHT22;23316;50.718;7.328;2022-08-07T08:31:56;19.80;42.30
37456;DHT22;23316;50.718;7.328;2022-08-07T08:34:24;19.90;42.00
37456;DHT22;23316;50.718;7.328;2022-08-07T08:36:53;20.00;42.20
37456;DHT22;23316;50.718;7.328;2022-08-07T08:39:22;20.00;42.60
37456;DHT22;23316;50.718;7.328;2022-08-07T08:41:52;20.10;42.30
37456;DHT22;23316;50.718;7.328;2022-08-07T08:44:26;20.20;41.20
37456;DHT22;23316;50.718;7.328;2022-08-07T08:47:04;20.30;41.10
37456;DHT22;23316;50.718;7.328;2022-08-07T08:53:02;20.50;41.30
37456;DHT22;23316;50.718;7.328;2022-08-07T08:55:34;20.60;40.20
37456;DHT22;23316;50.718;7.328;2022-08-07T08:58:07;20.70;39.80
37456;DHT22;23316;50.718;7.328;2022-08-07T09:00:42;20.80;39.90
37456;DHT22;23316;50.718;7.328;2022-08-07T09:03:21;20.80;40.00
37456;DHT22;23316;50.718;7.328;2022-08-07T09:05:54;21.00;39.10
37456;DHT22;23316;50.718;7.328;2022-08-07T09:08:28;21.10;38.20
37456;DHT22;23316;50.718;7.328;2022-08-07T09:11:10;21.20;39.00
37456;DHT22;23316;50.718;7.328;2022-08-07T09:13:53;21.30;38.80
37456;DHT22;23316;50.718;7.328;2022-08-07T09:16:28;21.40;38.70
37456;DHT22;23316;50.718;7.328;2022-08-07T09:19:25;21.50;38.70
37456;DHT22;23316;50.718;7.328;2022-08-07T09:22:09;21.60;38.10
37456;DHT22;23316;50.718;7.328;2022-08-07T09:24:46;21.70;37.10
37456;DHT22;23316;50.718;7.328;2022-08-07T09:27:27;21.80;36.70
37456;DHT22;23316;50.718;7.328;2022-08-07T09:29:59;21.90;37.40
37456;DHT22;23316;50.718;7.328;2022-08-07T09:32:48;22.00;37.40
37456;DHT22;23316;50.718;7.328;2022-08-07T09:35:24;22.00;35.70
37456;DHT22;23316;50.718;7.328;2022-08-07T09:37:57;22.10;35.60
37456;DHT22;23316;50.718;7.328;2022-08-07T09:40:29;22.20;35.20
37456;DHT22;23316;50.718;7.328;2022-08-07T09:43:10;22.30;35.70
37456;DHT22;23316;50.718;7.328;2022-08-07T09:45:43;22.40;35.10
37456;DHT22;23316;50.718;7.328;2022-08-07T09:48:21;22.40;34.80
37456;DHT22;23316;50.718;7.328;2022-08-07T09:51:10;22.50;35.50
37456;DHT22;23316;50.718;7.328;2022-08-07T09:53:41;22.60;35.90
37456;DHT22;23316;50.718;7.328;2022-08-07T09:56:45;22.70;35.50
37456;DHT22;23316;50.718;7.328;2022-08-07T09:59:32;22.80;34.10
37456;DHT22;23316;50.718;7.328;2022-08-07T10:02:20;22.80;34.00
37456;DHT22;23316;50.718;7.328;2022-08-07T10:05:07;22.90;33.90
37456;DHT22;23316;50.718;7.328;2022-08-07T10:07:54;23.00;33.00
37456;DHT22;23316;50.718;7.328;2022-08-07T10:10:34;23.10;33.90
37456;DHT22;23316;50.718;7.328;2022-08-07T10:13:18;23.10;34.00
37456;DHT22;23316;50.718;7.328;2022-08-07T10:15:53;23.20;33.60
37456;DHT22;23316;50.718;7.328;2022-08-07T10:19:05;23.20;34.70
37456;DHT22;23316;50.718;7.328;2022-08-07T10:21:44;23.30;34.60
37456;DHT22;23316;50.718;7.328;2022-08-07T10:24:29;23.30;33.50
37456;DHT22;23316;50.718;7.328;2022-08-07T10:27:15;23.40;33.10
37456;DHT22;23316;50.718;7.328;2022-08-07T10:29:59;23.40;33.80
37456;DHT22;23316;50.718;7.328;2022-08-07T10:32:45;23.50;33.90
37456;DHT22;23316;50.718;7.328;2022-08-07T10:35:23;23.50;34.50
37456;DHT22;23316;50.718;7.328;2022-08-07T10:37:56;23.50;34.10
37456;DHT22;23316;50.718;7.328;2022-08-07T10:40:32;23.60;34.00
37456;DHT22;23316;50.718;7.328;2022-08-07T10:43:08;23.60;33.40
37456;DHT22;23316;50.718;7.328;2022-08-07T10:45:37;23.70;32.90
37456;DHT22;23316;50.718;7.328;2022-08-07T10:48:16;23.80;33.60
37456;DHT22;23316;50.718;7.328;2022-08-07T10:50:49;23.80;32.90
37456;DHT22;23316;50.718;7.328;2022-08-07T10:53:26;23.80;32.70
37456;DHT22;23316;50.718;7.328;2022-08-07T10:56:02;23.90;32.30
37456;DHT22;23316;50.718;7.328;2022-08-07T10:58:44;23.90;33.30
37456;DHT22;23316;50.718;7.328;2022-08-07T11:01:28;24.00;32.90
37456;DHT22;23316;50.718;7.328;2022-08-07T11:04:03;24.00;33.10
37456;DHT22;23316;50.718;7.328;2022-08-07T11:06:40;24.10;32.80
37456;DHT22;23316;50.718;7.328;2022-08-07T11:09:11;24.10;33.20
37456;DHT22;23316;50.718;7.328;2022-08-07T11:11:45;24.20;32.40
37456;DHT22;23316;50.718;7.328;2022-08-07T11:14:21;24.20;31.70
37456;DHT22;23316;50.718;7.328;2022-08-07T11:16:53;24.30;31.40
37456;DHT22;23316;50.718;7.328;2022-08-07T11:19:34;24.30;31.60
37456;DHT22;23316;50.718;7.328;2022-08-07T11:22:07;24.40;32.50
37456;DHT22;23316;50.718;7.328;2022-08-07T11:24:40;24.40;31.80
37456;DHT22;23316;50.718;7.328;2022-08-07T11:27:18;24.50;32.20
37456;DHT22;23316;50.718;7.328;2022-08-07T11:29:53;24.50;31.30
37456;DHT22;23316;50.718;7.328;2022-08-07T11:32:29;24.60;31.30
37456;DHT22;23316;50.718;7.328;2022-08-07T11:35:01;24.70;30.80
37456;DHT22;23316;50.718;7.328;2022-08-07T11:37:53;24.70;30.90
37456;DHT22;23316;50.718;7.328;2022-08-07T11:40:28;24.80;30.70
37456;DHT22;23316;50.718;7.328;2022-08-07T11:43:10;24.90;30.80
37456;DHT22;23316;50.718;7.328;2022-08-07T11:45:50;24.90;31.20
37456;DHT22;23316;50.718;7.328;2022-08-07T11:51:24;25.00;31.30
37456;DHT22;23316;50.718;7.328;2022-08-07T11:53:59;25.10;31.50
37456;DHT22;23316;50.718;7.328;2022-08-07T11:56:46;25.10;31.80
37456;DHT22;23316;50.718;7.328;2022-08-07T11:59:43;25.10;31.30
37456;DHT22;23316;50.718;7.328;2022-08-07T12:02:15;25.10;31.60
37456;DHT22;23316;50.718;7.328;2022-08-07T12:05:01;25.20;31.50
37456;DHT22;23316;50.718;7.328;2022-08-07T12:07:33;25.20;30.10
37456;DHT22;23316;50.718;7.328;2022-08-07T12:10:07;25.20;31.10
37456;DHT22;23316;50.718;7.328;2022-08-07T12:12:37;25.30;30.50
37456;DHT22;23316;50.718;7.328;2022-08-07T12:15:13;25.30;30.70
37456;DHT22;23316;50.718;7.328;2022-08-07T12:17:46;25.40;31.40
37456;DHT22;23316;50.718;7.328;2022-08-07T12:20:21;25.40;29.90
37456;DHT22;23316;50.718;7.328;2022-08-07T12:23:10;25.40;30.80
37456;DHT22;23316;50.718;7.328;2022-08-07T12:25:45;25.50;30.50
37456;DHT22;23316;50.718;7.328;2022-08-07T12:28:23;25.50;30.00
37456;DHT22;23316;50.718;7.328;2022-08-07T12:30:56;25.60;30.50
37456;DHT22;23316;50.718;7.328;2022-08-07T12:33:27;25.60;29.60
37456;DHT22;23316;50.718;7.328;2022-08-07T12:35:57;25.60;29.80
37456;DHT22;23316;50.718;7.328;2022-08-07T12:38:27;25.70;30.00
37456;DHT22;23316;50.718;7.328;2022-08-07T12:40:56;25.70;29.70
37456;DHT22;23316;50.718;7.328;2022-08-07T12:43:29;25.80;29.30
37456;DHT22;23316;50.718;7.328;2022-08-07T12:46:07;25.80;29.50
37456;DHT22;23316;50.718;7.328;2022-08-07T12:48:44;25.80;29.60
37456;DHT22;23316;50.718;7.328;2022-08-07T12:51:16;25.90;30.10
37456;DHT22;23316;50.718;7.328;2022-08-07T12:53:50;26.00;29.00
37456;DHT22;23316;50.718;7.328;2022-08-07T12:56:25;26.00;29.50
37456;DHT22;23316;50.718;7.328;2022-08-07T12:58:53;26.00;29.80
37456;DHT22;23316;50.718;7.328;2022-08-07T13:01:34;26.10;30.00
37456;DHT22;23316;50.718;7.328;2022-08-07T13:04:20;26.10;30.00
37456;DHT22;23316;50.718;7.328;2022-08-07T13:07:01;26.20;29.10
37456;DHT22;23316;50.718;7.328;2022-08-07T13:09:49;26.20;29.90
37456;DHT22;23316;50.718;7.328;2022-08-07T13:12:30;26.30;30.00
37456;DHT22;23316;50.718;7.328;2022-08-07T13:15:02;26.30;28.90
37456;DHT22;23316;50.718;7.328;2022-08-07T13:17:42;26.30;28.30
37456;DHT22;23316;50.718;7.328;2022-08-07T13:20:19;26.30;28.50
37456;DHT22;23316;50.718;7.328;2022-08-07T13:22:53;26.30;28.70
37456;DHT22;23316;50.718;7.328;2022-08-07T13:25:26;26.30;29.10
37456;DHT22;23316;50.718;7.328;2022-08-07T13:27:59;26.40;28.20
37456;DHT22;23316;50.718;7.328;2022-08-07T13:30:28;26.40;28.70
37456;DHT22;23316;50.718;7.328;2022-08-07T13:33:03;26.40;28.90
37456;DHT22;23316;50.718;7.328;2022-08-07T13:35:38;26.40;28.10
37456;DHT22;23316;50.718;7.328;2022-08-07T13:38:12;26.50;27.90
37456;DHT22;23316;50.718;7.328;2022-08-07T13:40:48;26.50;27.90
37456;DHT22;23316;50.718;7.328;2022-08-07T13:43:19;26.60;27.60
37456;DHT22;23316;50.718;7.328;2022-08-07T13:45:53;26.60;27.50
37456;DHT22;23316;50.718;7.328;2022-08-07T13:48:23;26.70;28.10
37456;DHT22;23316;50.718;7.328;2022-08-07T13:50:53;26.70;27.90
37456;DHT22;23316;50.718;7.328;2022-08-07T13:53:24;26.70;28.20
37456;DHT22;23316;50.718;7.328;2022-08-07T13:55:53;26.70;27.70
37456;DHT22;23316;50.718;7.328;2022-08-07T13:58:23;26.80;27.70
37456;DHT22;23316;50.718;7.328;2022-08-07T14:01:11;26.80;27.60
37456;DHT22;23316;50.718;7.328;2022-08-07T14:03:41;26.90;28.10
37456;DHT22;23316;50.718;7.328;2022-08-07T14:06:10;26.90;27.90
37456;DHT22;23316;50.718;7.328;2022-08-07T14:08:46;27.00;28.00
37456;DHT22;23316;50.718;7.328;2022-08-07T14:11:16;27.00;28.00
37456;DHT22;23316;50.718;7.328;2022-08-07T14:13:49;27.00;27.90
37456;DHT22;23316;50.718;7.328;2022-08-07T14:16:24;27.10;27.70
37456;DHT22;23316;50.718;7.328;2022-08-07T14:18:54;27.10;28.20
37456;DHT22;23316;50.718;7.328;2022-08-07T14:21:25;27.10;27.50
37456;DHT22;23316;50.718;7.328;2022-08-07T14:23:56;27.20;27.90
37456;DHT22;23316;50.718;7.328;2022-08-07T14:26:27;27.10;28.10
37456;DHT22;23316;50.718;7.328;2022-08-07T14:28:56;27.20;27.10
37456;DHT22;23316;50.718;7.328;2022-08-07T14:31:25;27.20;27.30
37456;DHT22;23316;50.718;7.328;2022-08-07T14:33:54;27.10;26.80
37456;DHT22;23316;50.718;7.328;2022-08-07T14:36:26;27.20;27.70
37456;DHT22;23316;50.718;7.328;2022-08-07T14:38:54;27.20;27.30
37456;DHT22;23316;50.718;7.328;2022-08-07T14:41:25;27.20;27.20
37456;DHT22;23316;50.718;7.328;2022-08-07T14:43:55;27.20;27.60
37456;DHT22;23316;50.718;7.328;2022-08-07T14:46:23;27.20;28.00
37456;DHT22;23316;50.718;7.328;2022-08-07T14:48:54;27.30;27.80
37456;DHT22;23316;50.718;7.328;2022-08-07T14:51:24;27.30;27.20
37456;DHT22;23316;50.718;7.328;2022-08-07T14:53:54;27.30;27.10
37456;DHT22;23316;50.718;7.328;2022-08-07T14:56:23;27.30;27.00
37456;DHT22;23316;50.718;7.328;2022-08-07T14:58:54;27.30;26.60
37456;DHT22;23316;50.718;7.328;2022-08-07T15:01:29;27.30;26.90
37456;DHT22;23316;50.718;7.328;2022-08-07T15:04:01;27.30;26.80
37456;DHT22;23316;50.718;7.328;2022-08-07T15:06:31;27.30;27.20
37456;DHT22;23316;50.718;7.328;2022-08-07T15:09:02;27.40;26.90
37456;DHT22;23316;50.718;7.328;2022-08-07T15:11:32;27.40;26.90
37456;DHT22;23316;50.718;7.328;2022-08-07T15:14:06;27.50;27.30
37456;DHT22;23316;50.718;7.328;2022-08-07T15:16:38;27.50;27.40
37456;DHT22;23316;50.718;7.328;2022-08-07T15:19:12;27.50;26.60
37456;DHT22;23316;50.718;7.328;2022-08-07T15:21:42;27.50;26.80
37456;DHT22;23316;50.718;7.328;2022-08-07T15:24:16;27.50;26.80
37456;DHT22;23316;50.718;7.328;2022-08-07T15:26:46;27.60;26.80
37456;DHT22;23316;50.718;7.328;2022-08-07T15:29:17;27.60;26.80
37456;DHT22;23316;50.718;7.328;2022-08-07T15:31:48;27.70;26.70
37456;DHT22;23316;50.718;7.328;2022-08-07T15:34:17;27.70;26.50
37456;DHT22;23316;50.718;7.328;2022-08-07T15:36:47;27.70;26.50
37456;DHT22;23316;50.718;7.328;2022-08-07T15:39:16;27.70;26.90
37456;DHT22;23316;50.718;7.328;2022-08-07T15:41:57;27.70;26.80
37456;DHT22;23316;50.718;7.328;2022-08-07T15:44:27;27.80;26.50
37456;DHT22;23316;50.718;7.328;2022-08-07T15:46:58;27.70;26.70
37456;DHT22;23316;50.718;7.328;2022-08-07T15:49:30;27.70;25.80
37456;DHT22;23316;50.718;7.328;2022-08-07T15:51:59;27.80;26.10
37456;DHT22;23316;50.718;7.328;2022-08-07T15:54:33;27.80;26.30
37456;DHT22;23316;50.718;7.328;2022-08-07T15:57:04;27.70;26.30
37456;DHT22;23316;50.718;7.328;2022-08-07T15:59:33;27.70;26.40
37456;DHT22;23316;50.718;7.328;2022-08-07T16:02:04;27.70;25.90
37456;DHT22;23316;50.718;7.328;2022-08-07T16:04:34;27.70;26.00
37456;DHT22;23316;50.718;7.328;2022-08-07T16:07:05;27.70;26.20
37456;DHT22;23316;50.718;7.328;2022-08-07T16:09:40;27.60;26.00
37456;DHT22;23316;50.718;7.328;2022-08-07T16:12:19;27.60;25.90
37456;DHT22;23316;50.718;7.328;2022-08-07T16:14:58;27.60;26.30